createdAt,value
2019-02-21T00:01:57.934Z,56.00
2019-02-21T00:04:25.430Z,55.90
2019-02-21T00:06:52.812Z,55.80
2019-02-21T00:09:20.219Z,55.70
2019-02-21T00:11:47.752Z,55.60
2019-02-21T00:14:15.363Z,55.50
2019-02-21T00:16:42.858Z,55.50
2019-02-21T00:19:10.525Z,55.40
2019-02-21T00:21:38.148Z,55.40
2019-02-21T00:24:08.428Z,55.50
2019-02-21T00:26:36.637Z,55.40
2019-02-21T00:29:04.040Z,55.20
2019-02-21T00:31:31.477Z,55.80
2019-02-21T00:33:59.070Z,55.20
2019-02-21T00:36:26.733Z,55.00
2019-02-21T00:38:54.132Z,55.00
2019-02-21T00:41:21.608Z,55.00
2019-02-21T00:43:49.027Z,54.80
2019-02-21T00:46:16.438Z,54.90
2019-02-21T00:48:44.002Z,54.90
2019-02-21T00:51:11.397Z,54.80
2019-02-21T00:53:38.796Z,54.70
2019-02-21T00:56:06.348Z,54.80
2019-02-21T00:58:33.832Z,54.70
2019-02-21T01:01:01.237Z,54.70
2019-02-21T01:03:28.649Z,54.70
2019-02-21T01:05:56.108Z,54.60
2019-02-21T01:08:23.500Z,54.60
2019-02-21T01:10:50.919Z,54.60
2019-02-21T01:13:18.351Z,54.60
2019-02-21T01:15:45.882Z,54.50
2019-02-21T01:18:13.484Z,54.60
2019-02-21T01:20:40.972Z,54.60
2019-02-21T01:23:08.384Z,54.40
2019-02-21T01:25:35.869Z,54.40
2019-02-21T01:28:22.220Z,54.50
2019-02-21T01:30:56.632Z,54.40
2019-02-21T01:33:18.752Z,54.40
2019-02-21T01:35:46.188Z,54.40
2019-02-21T01:38:13.740Z,54.30
2019-02-21T01:40:41.144Z,54.40
2019-02-21T01:43:08.725Z,54.40
2019-02-21T01:45:36.127Z,54.40
2019-02-21T01:48:03.816Z,54.40
2019-02-21T01:50:32.220Z,54.40
2019-02-21T01:52:59.610Z,54.30
2019-02-21T01:55:27.209Z,54.30
2019-02-21T01:57:54.731Z,54.20
2019-02-21T02:00:22.133Z,54.30
2019-02-21T02:02:49.534Z,54.10
2019-02-21T02:05:16.986Z,54.30
2019-02-21T02:07:44.374Z,54.10
2019-02-21T02:10:11.772Z,54.10
2019-02-21T02:12:39.316Z,54.20
2019-02-21T02:15:06.872Z,54.10
2019-02-21T02:17:34.278Z,54.00
2019-02-21T02:20:01.725Z,54.10
2019-02-21T02:22:29.168Z,54.10
2019-02-21T02:24:56.561Z,54.10
2019-02-21T02:27:24.836Z,54.10
2019-02-21T02:29:52.336Z,54.00
2019-02-21T02:32:19.822Z,54.10
2019-02-21T02:34:47.250Z,54.10
2019-02-21T02:37:14.617Z,54.00
2019-02-21T02:39:42.011Z,54.00
2019-02-21T02:42:10.291Z,54.00
2019-02-21T02:44:37.722Z,54.70
2019-02-21T02:47:05.245Z,54.10
2019-02-21T02:49:33.299Z,54.00
2019-02-21T02:52:00.869Z,54.10
2019-02-21T02:54:28.255Z,54.00
2019-02-21T02:56:55.678Z,54.00
2019-02-21T02:59:23.098Z,54.10
2019-02-21T03:01:51.297Z,54.00
2019-02-21T03:04:18.748Z,54.10
2019-02-21T03:06:46.284Z,54.10
2019-02-21T03:09:13.664Z,54.10
2019-02-21T03:11:41.293Z,54.10
2019-02-21T03:14:08.707Z,54.10
2019-02-21T03:16:36.092Z,54.20
2019-02-21T03:19:03.514Z,54.20
2019-02-21T03:21:30.921Z,54.30
2019-02-21T03:23:58.321Z,54.10
2019-02-21T03:26:25.796Z,54.10
2019-02-21T03:28:53.205Z,54.10
2019-02-21T03:31:20.606Z,54.20
2019-02-21T03:33:48.086Z,54.20
2019-02-21T03:36:15.491Z,54.60
2019-02-21T03:38:42.932Z,54.40
2019-02-21T03:41:10.439Z,54.40
2019-02-21T03:43:37.832Z,54.50
2019-02-21T03:46:05.391Z,54.60
2019-02-21T03:48:32.835Z,54.60
2019-02-21T03:51:00.232Z,54.60
2019-02-21T03:53:27.623Z,54.50
2019-02-21T03:55:55.048Z,54.40
2019-02-21T03:58:22.458Z,54.30
2019-02-21T04:00:49.976Z,54.20
2019-02-21T04:03:17.392Z,54.30
2019-02-21T04:05:44.775Z,54.30
2019-02-21T04:08:12.342Z,54.20
2019-02-21T04:10:43.097Z,54.20
2019-02-21T04:13:10.496Z,53.60
2019-02-21T04:15:37.884Z,54.20
2019-02-21T04:18:05.307Z,54.30
2019-02-21T04:20:32.708Z,54.40
2019-02-21T04:23:00.088Z,54.30
2019-02-21T04:25:27.577Z,54.30
2019-02-21T04:27:55.022Z,54.20
2019-02-21T04:30:22.433Z,54.20
2019-02-21T04:32:49.876Z,54.20
2019-02-21T04:35:17.300Z,54.20
2019-02-21T04:37:44.755Z,54.30
2019-02-21T04:40:12.194Z,54.30
2019-02-21T04:42:39.674Z,54.30
2019-02-21T04:45:07.077Z,54.40
2019-02-21T04:47:34.833Z,54.20
2019-02-21T04:50:02.270Z,54.20
2019-02-21T04:52:29.667Z,54.20
2019-02-21T04:54:57.278Z,54.10
2019-02-21T04:57:24.692Z,54.10
2019-02-21T04:59:52.088Z,54.20
2019-02-21T05:02:28.583Z,54.10
2019-02-21T05:04:48.656Z,54.20
2019-02-21T05:07:16.044Z,54.00
2019-02-21T05:09:43.478Z,54.00
2019-02-21T05:12:10.941Z,54.00
2019-02-21T05:14:38.325Z,54.00
2019-02-21T05:17:05.852Z,54.00
2019-02-21T05:19:33.436Z,54.10
2019-02-21T05:22:00.849Z,54.10
2019-02-21T05:24:28.512Z,54.20
2019-02-21T05:27:00.928Z,54.00
2019-02-21T05:29:28.401Z,54.10
2019-02-21T05:32:06.082Z,54.00
2019-02-21T05:34:44.031Z,54.00
2019-02-21T05:37:45.738Z,54.00
2019-02-21T05:40:28.759Z,54.20
2019-02-21T05:43:13.929Z,54.10
2019-02-21T05:46:10.556Z,54.20
2019-02-21T05:48:47.511Z,54.30
2019-02-21T05:51:46.128Z,54.30
2019-02-21T05:54:35.234Z,54.30
2019-02-21T05:57:06.955Z,54.30
2019-02-21T06:00:05.353Z,55.10
2019-02-21T06:02:57.558Z,54.30
2019-02-21T06:05:37.361Z,54.30
2019-02-21T06:08:23.724Z,54.30
2019-02-21T06:11:03.842Z,54.60
2019-02-21T06:14:05.565Z,54.50
2019-02-21T06:16:39.144Z,54.60
2019-02-21T06:19:22.906Z,54.60
2019-02-21T06:22:15.354Z,54.50
2019-02-21T06:24:51.714Z,54.60
2019-02-21T06:27:25.845Z,54.60
2019-02-21T06:29:59.801Z,54.70
2019-02-21T06:32:27.258Z,54.70
2019-02-21T06:34:54.692Z,54.70
2019-02-21T06:37:22.092Z,54.80
2019-02-21T06:39:49.491Z,54.70
2019-02-21T06:42:16.983Z,54.90
2019-02-21T06:44:44.396Z,55.00
2019-02-21T06:47:11.796Z,55.60
2019-02-21T06:49:39.265Z,56.40
2019-02-21T06:52:06.871Z,57.20
2019-02-21T06:54:34.265Z,57.10
2019-02-21T06:57:01.889Z,57.20
2019-02-21T06:59:29.436Z,57.20
2019-02-21T07:01:56.875Z,57.40
2019-02-21T07:04:24.323Z,57.20
2019-02-21T07:06:51.745Z,56.70
2019-02-21T07:09:19.170Z,56.40
2019-02-21T07:11:46.606Z,56.30
2019-02-21T07:14:14.131Z,56.20
2019-02-21T07:16:41.606Z,56.10
2019-02-21T07:19:10.813Z,56.10
2019-02-21T07:21:38.469Z,56.20
2019-02-21T07:24:05.854Z,56.10
2019-02-21T07:26:33.396Z,56.10
2019-02-21T07:29:00.824Z,56.10
2019-02-21T07:31:29.671Z,56.80
2019-02-21T07:33:57.429Z,57.10
2019-02-21T07:36:24.836Z,57.10
2019-02-21T07:38:53.580Z,57.70
2019-02-21T07:41:21.408Z,58.10
2019-02-21T07:43:48.830Z,58.00
2019-02-21T07:46:16.272Z,57.70
2019-02-21T07:48:43.719Z,57.40
2019-02-21T07:51:13.426Z,57.70
2019-02-21T07:53:40.297Z,57.50
2019-02-21T07:56:07.740Z,57.40
2019-02-21T07:58:35.135Z,57.20
2019-02-21T08:01:02.550Z,57.30
2019-02-21T08:03:43.110Z,57.20
2019-02-21T08:05:59.347Z,57.90
2019-02-21T08:08:26.923Z,57.10
2019-02-21T08:10:54.372Z,57.00
2019-02-21T08:13:21.769Z,57.00
2019-02-21T08:15:49.167Z,56.90
2019-02-21T08:18:16.594Z,57.40
2019-02-21T08:20:44.261Z,56.90
2019-02-21T08:23:11.724Z,56.90
2019-02-21T08:25:39.175Z,56.80
2019-02-21T08:28:06.572Z,56.70
2019-02-21T08:30:34.145Z,56.90
2019-02-21T08:33:05.623Z,56.80
2019-02-21T08:35:33.023Z,57.00
2019-02-21T08:38:00.423Z,57.10
2019-02-21T08:40:27.914Z,56.90
2019-02-21T08:42:55.305Z,56.80
2019-02-21T08:45:22.852Z,56.80
2019-02-21T08:47:50.488Z,57.30
2019-02-21T08:50:17.915Z,57.10
2019-02-21T08:52:45.339Z,58.10
2019-02-21T08:55:12.901Z,57.30
2019-02-21T08:57:40.353Z,56.90
2019-02-21T09:00:07.862Z,56.80
2019-02-21T09:02:36.044Z,56.80
2019-02-21T09:05:03.688Z,56.80
2019-02-21T09:07:31.090Z,56.80
2019-02-21T09:09:58.544Z,56.60
2019-02-21T09:12:25.957Z,56.70
2019-02-21T09:14:53.367Z,56.80
2019-02-21T09:17:20.782Z,56.80
2019-02-21T09:19:48.409Z,57.40
2019-02-21T09:22:15.814Z,58.40
2019-02-21T09:24:43.257Z,59.70
2019-02-21T09:27:10.724Z,60.10
2019-02-21T09:29:38.149Z,60.70
2019-02-21T09:32:06.924Z,61.00
2019-02-21T09:34:34.632Z,61.30
2019-02-21T09:37:02.080Z,61.30
2019-02-21T09:39:29.591Z,61.60
2019-02-21T09:41:57.056Z,61.80
2019-02-21T09:44:27.129Z,62.10
2019-02-21T09:46:53.640Z,62.10
2019-02-21T09:49:21.028Z,62.30
2019-02-21T09:51:48.598Z,62.10
2019-02-21T09:54:18.920Z,62.30
2019-02-21T09:56:52.951Z,62.70
2019-02-21T09:59:14.637Z,62.80
2019-02-21T10:01:42.060Z,62.90
2019-02-21T10:04:09.452Z,63.30
2019-02-21T10:06:36.987Z,63.10
2019-02-21T10:09:07.479Z,63.50
2019-02-21T10:11:34.889Z,63.60
2019-02-21T10:14:02.397Z,64.30
2019-02-21T10:16:29.875Z,64.20
2019-02-21T10:19:00.276Z,64.50
2019-02-21T10:21:27.689Z,64.80
2019-02-21T10:23:56.716Z,65.10
2019-02-21T10:26:24.219Z,64.90
2019-02-21T10:28:51.680Z,64.80
2019-02-21T10:31:19.136Z,65.30
2019-02-21T10:33:47.477Z,65.20
2019-02-21T10:36:15.057Z,65.60
2019-02-21T10:38:42.448Z,65.50
2019-02-21T10:41:09.858Z,66.00
2019-02-21T10:43:37.275Z,66.10
2019-02-21T10:46:05.006Z,65.90
2019-02-21T10:48:32.562Z,66.80
2019-02-21T10:50:59.967Z,67.50
2019-02-21T10:53:27.369Z,67.30
2019-02-21T10:55:54.798Z,66.50
2019-02-21T10:58:22.219Z,64.80
2019-02-21T11:00:49.770Z,63.90
2019-02-21T11:03:17.258Z,64.30
2019-02-21T11:05:44.642Z,66.50
2019-02-21T11:08:12.080Z,68.10
2019-02-21T11:10:39.575Z,68.20
2019-02-21T11:13:07.076Z,68.30
2019-02-21T11:15:34.662Z,68.90
2019-02-21T11:18:02.343Z,68.80
2019-02-21T11:20:29.889Z,67.30
2019-02-21T11:22:58.142Z,66.80
2019-02-21T11:25:26.180Z,66.00
2019-02-21T11:27:53.688Z,66.10
2019-02-21T11:30:21.152Z,66.30
2019-02-21T11:32:48.684Z,66.40
2019-02-21T11:35:16.091Z,66.20
2019-02-21T11:37:46.882Z,66.20
2019-02-21T11:40:12.887Z,66.00
2019-02-21T11:42:40.293Z,66.30
2019-02-21T11:45:07.765Z,66.50
2019-02-21T11:47:35.207Z,66.80
2019-02-21T11:50:02.683Z,66.70
2019-02-21T11:52:30.140Z,66.30
2019-02-21T11:54:57.582Z,66.90
2019-02-21T11:57:25.980Z,67.00
2019-02-21T11:59:53.371Z,67.00
2019-02-21T12:02:20.790Z,66.60
2019-02-21T12:04:48.280Z,66.50
2019-02-21T12:07:15.918Z,66.50
2019-02-21T12:09:43.422Z,66.60
2019-02-21T12:12:10.987Z,66.20
2019-02-21T12:14:38.435Z,66.50
2019-02-21T12:17:05.951Z,66.90
2019-02-21T12:19:34.005Z,66.60
2019-02-21T12:22:01.874Z,67.20
2019-02-21T12:24:29.346Z,67.10
2019-02-21T12:26:56.744Z,66.80
2019-02-21T12:29:24.315Z,66.90
2019-02-21T12:31:51.914Z,66.80
2019-02-21T12:34:19.403Z,66.60
2019-02-21T12:36:47.034Z,66.40
2019-02-21T12:39:14.972Z,67.00
2019-02-21T12:41:42.619Z,66.60
2019-02-21T12:44:10.012Z,66.40
2019-02-21T12:46:37.432Z,66.70
2019-02-21T12:49:04.926Z,66.90
2019-02-21T12:51:32.328Z,66.30
2019-02-21T12:53:59.752Z,66.30
2019-02-21T12:56:27.176Z,65.90
2019-02-21T12:58:54.717Z,65.90
2019-02-21T13:01:22.118Z,66.40
2019-02-21T13:03:49.580Z,66.60
2019-02-21T13:06:17.115Z,66.20
2019-02-21T13:08:44.650Z,66.20
2019-02-21T13:11:12.032Z,66.10
2019-02-21T13:13:39.449Z,66.10
2019-02-21T13:16:06.833Z,66.20
2019-02-21T13:18:34.228Z,66.30
2019-02-21T13:21:01.748Z,67.10
2019-02-21T13:23:29.134Z,66.50
2019-02-21T13:25:56.515Z,67.00
2019-02-21T13:28:23.940Z,67.20
2019-02-21T13:30:51.350Z,67.00
2019-02-21T13:33:18.821Z,66.70
2019-02-21T13:35:52.728Z,66.10
2019-02-21T13:38:15.613Z,66.40
2019-02-21T13:40:43.132Z,67.50
2019-02-21T13:43:10.620Z,67.20
2019-02-21T13:45:38.022Z,67.10
2019-02-21T13:48:08.414Z,67.40
2019-02-21T13:50:35.812Z,67.50
2019-02-21T13:53:03.219Z,67.60
2019-02-21T13:55:30.630Z,67.40
2019-02-21T13:57:58.098Z,67.40
2019-02-21T14:00:25.492Z,67.70
2019-02-21T14:02:52.899Z,66.60
2019-02-21T14:05:20.327Z,67.00
2019-02-21T14:07:47.787Z,67.40
2019-02-21T14:10:15.194Z,66.60
2019-02-21T14:12:42.638Z,65.80
2019-02-21T14:15:10.140Z,66.60
2019-02-21T14:17:37.724Z,67.20
2019-02-21T14:20:05.176Z,67.00
2019-02-21T14:22:32.646Z,66.40
2019-02-21T14:25:00.033Z,65.50
2019-02-21T14:27:27.463Z,65.10
2019-02-21T14:29:54.857Z,65.40
2019-02-21T14:32:22.408Z,65.50
2019-02-21T14:34:49.837Z,65.50
2019-02-21T14:37:17.416Z,65.40
2019-02-21T14:39:44.984Z,65.60
2019-02-21T14:42:12.437Z,64.40
2019-02-21T14:44:40.427Z,65.40
2019-02-21T14:47:08.236Z,64.60
2019-02-21T14:49:35.782Z,64.40
2019-02-21T14:52:03.519Z,64.40
2019-02-21T14:54:30.984Z,64.40
2019-02-21T14:56:58.422Z,64.50
2019-02-21T14:59:25.847Z,64.30
2019-02-21T15:01:53.271Z,64.10
2019-02-21T15:04:20.721Z,64.20
2019-02-21T15:06:48.142Z,64.10
2019-02-21T15:09:15.642Z,64.00
2019-02-21T15:11:43.107Z,64.20
2019-02-21T15:14:10.577Z,64.20
2019-02-21T15:16:38.082Z,64.10
2019-02-21T15:19:05.498Z,64.10
2019-02-21T15:21:32.928Z,64.20
2019-02-21T15:24:00.418Z,64.30
2019-02-21T15:26:27.835Z,64.10
2019-02-21T15:28:55.309Z,63.90
2019-02-21T15:31:22.766Z,63.90
2019-02-21T15:33:50.501Z,64.10
2019-02-21T15:36:18.187Z,63.90
2019-02-21T15:38:45.898Z,63.90
2019-02-21T15:41:13.333Z,64.20
2019-02-21T15:43:40.709Z,63.70
2019-02-21T15:46:08.150Z,64.00
2019-02-21T15:48:35.571Z,63.90
2019-02-21T15:51:02.966Z,64.00
2019-02-21T15:53:30.428Z,63.50
2019-02-21T15:55:57.841Z,63.60
2019-02-21T15:58:25.264Z,63.90
2019-02-21T16:00:52.646Z,64.00
2019-02-21T16:03:20.116Z,63.60
2019-02-21T16:05:47.542Z,63.40
2019-02-21T16:08:24.949Z,67.20
2019-02-21T16:14:15.479Z,66.70
2019-02-21T16:17:02.087Z,66.00
2019-02-21T16:25:39.256Z,65.70
2019-02-21T16:28:07.146Z,65.30
2019-02-21T16:30:34.555Z,65.20
2019-02-21T16:33:02.005Z,65.00
2019-02-21T16:35:29.427Z,64.40
2019-02-21T16:37:56.875Z,64.30
2019-02-21T16:40:24.344Z,64.00
2019-02-21T16:42:51.758Z,63.80
2019-02-21T16:45:19.238Z,63.20
2019-02-21T16:47:46.763Z,63.60
2019-02-21T16:50:14.168Z,63.50
2019-02-21T16:52:41.661Z,63.50
2019-02-21T16:55:09.082Z,63.50
2019-02-21T16:57:36.561Z,63.20
2019-02-21T17:00:03.998Z,63.90
2019-02-21T17:28:36.161Z,64.20
2019-02-21T17:31:03.665Z,64.20
2019-02-21T17:33:49.991Z,64.20
2019-02-21T17:36:17.428Z,64.10
2019-02-21T17:38:45.116Z,63.50
2019-02-21T17:41:12.561Z,63.40
2019-02-21T17:43:39.974Z,63.30
2019-02-21T17:46:07.407Z,63.00
2019-02-21T17:48:38.015Z,62.90
2019-02-21T17:51:05.474Z,63.10
2019-02-21T17:53:32.873Z,62.90
2019-02-21T17:56:00.552Z,62.80
2019-02-21T17:58:29.170Z,63.00
2019-02-21T18:00:56.604Z,63.90
2019-02-21T18:03:27.202Z,63.00
2019-02-21T18:05:56.050Z,62.70
2019-02-21T18:08:23.639Z,62.70
2019-02-21T18:10:51.252Z,63.30
2019-02-21T18:13:18.663Z,63.50
2019-02-21T18:15:46.085Z,63.60
2019-02-21T18:18:13.761Z,64.20
2019-02-21T18:20:41.271Z,64.80
2019-02-21T18:23:08.819Z,64.40
2019-02-21T18:25:36.324Z,64.50
2019-02-21T18:28:03.827Z,64.70
2019-02-21T18:30:31.242Z,64.50
2019-02-21T18:32:58.775Z,64.50
2019-02-21T18:35:26.213Z,64.50
2019-02-21T18:37:53.600Z,64.60
2019-02-21T18:40:21.259Z,64.40
2019-02-21T18:42:48.747Z,64.30
2019-02-21T18:45:16.178Z,64.50
2019-02-21T18:47:43.589Z,64.50
2019-02-21T18:50:11.333Z,64.20
2019-02-21T18:52:38.740Z,64.60
2019-02-21T18:55:06.156Z,65.00
2019-02-21T18:57:33.655Z,65.60
2019-02-21T19:00:01.092Z,65.30
2019-02-21T19:02:28.555Z,65.70
2019-02-21T19:04:56.037Z,66.20
2019-02-21T19:07:23.531Z,66.00
2019-02-21T19:09:50.960Z,65.80
2019-02-21T19:12:18.484Z,65.00
2019-02-21T19:14:46.003Z,65.00
2019-02-21T19:17:13.442Z,65.00
2019-02-21T19:19:40.881Z,64.70
2019-02-21T19:22:08.332Z,64.60
2019-02-21T19:24:37.108Z,64.50
2019-02-21T19:27:05.103Z,64.30
2019-02-21T19:29:32.623Z,64.20
2019-02-21T19:32:00.284Z,64.30
2019-02-21T19:34:27.845Z,64.10
2019-02-21T19:36:55.284Z,64.40
2019-02-21T19:39:22.688Z,64.10
2019-02-21T19:41:50.132Z,63.90
2019-02-21T19:44:17.551Z,64.10
2019-02-21T19:46:45.035Z,64.10
2019-02-21T19:49:12.562Z,63.90
2019-02-21T19:51:39.965Z,64.00
2019-02-21T19:54:07.395Z,64.20
2019-02-21T19:56:34.828Z,63.70
2019-02-21T19:59:02.233Z,63.70
2019-02-21T20:01:29.746Z,63.90
2019-02-21T20:03:57.272Z,64.00
2019-02-21T20:06:24.800Z,63.90
2019-02-21T20:08:52.283Z,63.90
2019-02-21T20:11:19.852Z,63.90
2019-02-21T20:13:47.269Z,63.80
2019-02-21T20:16:14.685Z,63.90
2019-02-21T20:18:42.220Z,63.50
2019-02-21T20:21:09.780Z,64.40
2019-02-21T20:23:37.332Z,63.60
2019-02-21T20:26:04.800Z,63.60
2019-02-21T20:28:32.271Z,63.90
2019-02-21T20:30:59.743Z,63.90
2019-02-21T20:33:27.405Z,63.60
2019-02-21T20:35:54.906Z,63.60
2019-02-21T20:38:31.800Z,63.90
2019-02-21T20:40:53.982Z,63.70
2019-02-21T20:43:21.433Z,64.10
2019-02-21T20:45:52.918Z,63.60
2019-02-21T20:48:18.053Z,63.70
2019-02-21T20:50:56.116Z,63.40
2019-02-21T20:53:14.630Z,63.50
2019-02-21T20:55:43.667Z,63.70
2019-02-21T20:58:11.859Z,63.40
2019-02-21T21:00:39.444Z,63.30
2019-02-21T21:03:06.838Z,63.30
2019-02-21T21:05:34.360Z,63.50
2019-02-21T21:08:01.882Z,63.50
2019-02-21T21:10:29.290Z,63.40
2019-02-21T21:12:56.771Z,63.50
2019-02-21T21:15:24.208Z,63.30
2019-02-21T21:17:51.698Z,63.40
2019-02-21T21:20:19.177Z,64.20
2019-02-21T21:22:46.620Z,63.40
2019-02-21T21:25:14.104Z,63.00
2019-02-21T21:27:41.536Z,63.30
2019-02-21T21:30:08.985Z,63.50
2019-02-21T21:32:36.460Z,63.50
2019-02-21T21:35:03.925Z,63.30
2019-02-21T21:37:31.410Z,63.20
2019-02-21T21:39:58.875Z,63.30
2019-02-21T21:42:26.384Z,63.30
2019-02-21T21:44:53.812Z,63.50
2019-02-21T21:47:21.258Z,63.30
2019-02-21T21:49:48.677Z,63.40
2019-02-21T21:52:16.110Z,63.00
2019-02-21T21:54:43.563Z,63.30
2019-02-21T21:57:11.282Z,63.10
2019-02-21T21:59:38.763Z,62.90
2019-02-21T22:02:06.284Z,63.20
2019-02-21T22:04:33.758Z,63.20
2019-02-21T22:07:01.197Z,62.90
2019-02-21T22:09:28.616Z,63.10
2019-02-21T22:11:56.083Z,62.90
2019-02-21T22:14:23.515Z,63.00
2019-02-21T22:16:51.337Z,63.10
2019-02-21T22:19:18.808Z,63.10
2019-02-21T22:21:46.234Z,62.80
2019-02-21T22:24:13.619Z,62.80
2019-02-21T22:26:41.160Z,62.90
2019-02-21T22:29:08.586Z,62.80
2019-02-21T22:31:35.989Z,62.80
2019-02-21T22:34:03.441Z,62.80
2019-02-21T22:36:30.863Z,62.80
2019-02-21T22:38:58.581Z,62.70
2019-02-21T22:41:28.116Z,62.20
2019-02-21T22:43:55.235Z,62.20
2019-02-21T22:46:23.214Z,62.60
2019-02-21T22:48:50.723Z,62.80
2019-02-21T22:51:18.663Z,62.80
2019-02-21T22:53:46.386Z,63.00
2019-02-21T22:56:13.805Z,62.90
2019-02-21T22:58:45.103Z,62.90
2019-02-21T23:01:15.919Z,62.80
2019-02-21T23:03:43.344Z,62.90
2019-02-21T23:06:11.077Z,63.10
2019-02-21T23:08:38.720Z,63.00
2019-02-21T23:11:06.135Z,62.80
2019-02-21T23:13:33.565Z,62.80
2019-02-21T23:16:00.962Z,63.20
2019-02-21T23:18:28.695Z,63.10
2019-02-21T23:20:56.205Z,63.00
2019-02-21T23:23:23.711Z,63.10
2019-02-21T23:25:51.111Z,63.40
2019-02-21T23:28:18.747Z,63.50
2019-02-21T23:30:46.221Z,63.70
2019-02-21T23:33:13.620Z,63.60
2019-02-21T23:35:41.141Z,63.40
2019-02-21T23:38:08.761Z,63.30
2019-02-21T23:40:37.058Z,63.20
2019-02-21T23:43:04.673Z,63.60
2019-02-21T23:45:32.270Z,62.80
2019-02-21T23:47:59.666Z,62.60
2019-02-21T23:50:27.172Z,63.10
2019-02-21T23:52:54.584Z,63.20
2019-02-21T23:55:22.031Z,63.00
2019-02-21T23:57:49.488Z,62.90
